sensor_id;sensor_type;location;lat;lon;timestamp;temperature;humidity
9215;DHT22;4642;51.364;6.788;2023-06-01T00:00:13;15.60;1.00
9215;DHT22;4642;51.364;6.788;2023-06-01T00:02:39;15.60;1.00
9215;DHT22;4642;51.364;6.788;2023-06-01T00:05:06;15.60;1.00
9215;DHT22;4642;51.364;6.788;2023-06-01T00:07:32;15.50;92.00
9215;DHT22;4642;51.364;6.788;2023-06-01T00:09:58;15.50;99.90
9215;DHT22;4642;51.364;6.788;2023-06-01T00:12:26;15.40;1.00
9215;DHT22;4642;51.364;6.788;2023-06-01T00:14:51;15.50;1.00
9215;DHT22;4642;51.364;6.788;2023-06-01T00:17:17;15.40;99.90
9215;DHT22;4642;51.364;6.788;2023-06-01T00:19:42;15.30;1.00
9215;DHT22;4642;51.364;6.788;2023-06-01T00:22:13;15.30;99.90
9215;DHT22;4642;51.364;6.788;2023-06-01T00:24:38;15.20;1.00
9215;DHT22;4642;51.364;6.788;2023-06-01T00:27:04;15.20;99.90
9215;DHT22;4642;51.364;6.788;2023-06-01T00:29:30;15.10;99.90
9215;DHT22;4642;51.364;6.788;2023-06-01T00:31:56;15.10;99.90
9215;DHT22;4642;51.364;6.788;2023-06-01T00:34:22;15.10;99.90
9215;DHT22;4642;51.364;6.788;2023-06-01T00:36:47;15.10;99.90
9215;DHT22;4642;51.364;6.788;2023-06-01T00:39:13;15.10;99.90
9215;DHT22;4642;51.364;6.788;2023-06-01T00:41:38;15.10;99.90
9215;DHT22;4642;51.364;6.788;2023-06-01T00:44:04;15.00;1.00
9215;DHT22;4642;51.364;6.788;2023-06-01T00:46:31;15.00;1.00
9215;DHT22;4642;51.364;6.788;2023-06-01T00:48:57;15.00;1.00
9215;DHT22;4642;51.364;6.788;2023-06-01T00:51:23;15.00;19.20
9215;DHT22;4642;51.364;6.788;2023-06-01T00:53:49;14.90;46.90
9215;DHT22;4642;51.364;6.788;2023-06-01T00:56:16;14.90;87.80
9215;DHT22;4642;51.364;6.788;2023-06-01T00:58:42;14.90;15.30
9215;DHT22;4642;51.364;6.788;2023-06-01T01:01:08;14.90;99.90
9215;DHT22;4642;51.364;6.788;2023-06-01T01:03:34;14.80;99.90
9215;DHT22;4642;51.364;6.788;2023-06-01T01:06:45;14.90;99.90
9215;DHT22;4642;51.364;6.788;2023-06-01T01:12:00;14.70;99.90
9215;DHT22;4642;51.364;6.788;2023-06-01T01:17:36;14.60;1.00
9215;DHT22;4642;51.364;6.788;2023-06-01T01:20:13;14.60;1.00
9215;DHT22;4642;51.364;6.788;2023-06-01T01:23:06;14.50;1.00
9215;DHT22;4642;51.364;6.788;2023-06-01T01:26:07;14.50;1.00
9215;DHT22;4642;51.364;6.788;2023-06-01T01:28:49;14.50;1.00
9215;DHT22;4642;51.364;6.788;2023-06-01T01:31:19;14.40;1.00
9215;DHT22;4642;51.364;6.788;2023-06-01T01:33:47;14.30;93.50
9215;DHT22;4642;51.364;6.788;2023-06-01T01:36:14;14.30;99.90
9215;DHT22;4642;51.364;6.788;2023-06-01T01:38:40;14.20;99.90
9215;DHT22;4642;51.364;6.788;2023-06-01T01:41:06;14.20;99.90
9215;DHT22;4642;51.364;6.788;2023-06-01T01:43:32;14.20;99.90
9215;DHT22;4642;51.364;6.788;2023-06-01T01:49:24;14.10;99.90
9215;DHT22;4642;51.364;6.788;2023-06-01T01:54:13;14.00;99.90
9215;DHT22;4642;51.364;6.788;2023-06-01T01:56:38;14.00;99.90
9215;DHT22;4642;51.364;6.788;2023-06-01T01:59:04;14.00;99.90
9215;DHT22;4642;51.364;6.788;2023-06-01T02:01:32;14.00;99.90
9215;DHT22;4642;51.364;6.788;2023-06-01T02:04:04;13.90;99.90
9215;DHT22;4642;51.364;6.788;2023-06-01T02:06:32;13.90;1.00
9215;DHT22;4642;51.364;6.788;2023-06-01T02:08:58;13.90;1.00
9215;DHT22;4642;51.364;6.788;2023-06-01T02:11:24;13.90;1.00
9215;DHT22;4642;51.364;6.788;2023-06-01T02:13:50;13.80;1.00
9215;DHT22;4642;51.364;6.788;2023-06-01T02:16:15;13.80;1.00
9215;DHT22;4642;51.364;6.788;2023-06-01T02:18:44;13.80;1.00
9215;DHT22;4642;51.364;6.788;2023-06-01T02:21:12;13.70;1.00
9215;DHT22;4642;51.364;6.788;2023-06-01T02:23:37;13.80;1.00
9215;DHT22;4642;51.364;6.788;2023-06-01T02:26:05;13.70;1.00
9215;DHT22;4642;51.364;6.788;2023-06-01T02:28:31;13.70;1.00
9215;DHT22;4642;51.364;6.788;2023-06-01T02:30:56;13.60;1.00
9215;DHT22;4642;51.364;6.788;2023-06-01T02:33:22;13.60;1.00
9215;DHT22;4642;51.364;6.788;2023-06-01T02:35:50;13.50;1.00
9215;DHT22;4642;51.364;6.788;2023-06-01T02:38:16;13.50;1.00
9215;DHT22;4642;51.364;6.788;2023-06-01T02:40:42;13.50;1.00
9215;DHT22;4642;51.364;6.788;2023-06-01T02:43:07;13.40;1.00
9215;DHT22;4642;51.364;6.788;2023-06-01T02:45:33;13.40;1.00
9215;DHT22;4642;51.364;6.788;2023-06-01T02:47:58;13.30;1.00
9215;DHT22;4642;51.364;6.788;2023-06-01T02:50:24;13.20;1.00
9215;DHT22;4642;51.364;6.788;2023-06-01T02:52:50;13.40;1.00
9215;DHT22;4642;51.364;6.788;2023-06-01T02:55:16;13.30;1.00
9215;DHT22;4642;51.364;6.788;2023-06-01T02:57:41;13.10;1.00
9215;DHT22;4642;51.364;6.788;2023-06-01T03:00:07;13.10;1.00
9215;DHT22;4642;51.364;6.788;2023-06-01T03:02:47;13.00;1.00
9215;DHT22;4642;51.364;6.788;2023-06-01T03:05:14;13.00;1.00
9215;DHT22;4642;51.364;6.788;2023-06-01T03:07:43;12.90;1.00
9215;DHT22;4642;51.364;6.788;2023-06-01T03:10:09;12.90;1.00
9215;DHT22;4642;51.364;6.788;2023-06-01T03:12:35;12.80;18.40
9215;DHT22;4642;51.364;6.788;2023-06-01T03:15:00;12.80;38.70
9215;DHT22;4642;51.364;6.788;2023-06-01T03:17:26;12.80;11.70
9215;DHT22;4642;51.364;6.788;2023-06-01T03:19:51;12.80;15.10
9215;DHT22;4642;51.364;6.788;2023-06-01T03:22:17;12.70;1.00
9215;DHT22;4642;51.364;6.788;2023-06-01T03:24:43;12.70;24.10
9215;DHT22;4642;51.364;6.788;2023-06-01T03:27:09;12.70;27.60
9215;DHT22;4642;51.364;6.788;2023-06-01T03:29:36;12.60;17.50
9215;DHT22;4642;51.364;6.788;2023-06-01T03:32:02;12.60;25.10
9215;DHT22;4642;51.364;6.788;2023-06-01T03:34:27;12.60;42.40
9215;DHT22;4642;51.364;6.788;2023-06-01T03:36:54;12.50;22.00
9215;DHT22;4642;51.364;6.788;2023-06-01T03:39:19;12.50;13.10
9215;DHT22;4642;51.364;6.788;2023-06-01T03:41:45;12.50;43.30
9215;DHT22;4642;51.364;6.788;2023-06-01T03:44:11;12.60;53.60
9215;DHT22;4642;51.364;6.788;2023-06-01T03:46:38;12.50;42.80
9215;DHT22;4642;51.364;6.788;2023-06-01T03:49:04;12.50;78.90
9215;DHT22;4642;51.364;6.788;2023-06-01T03:51:30;12.40;39.70
9215;DHT22;4642;51.364;6.788;2023-06-01T03:53:55;12.40;91.60
9215;DHT22;4642;51.364;6.788;2023-06-01T03:56:21;12.40;98.50
9215;DHT22;4642;51.364;6.788;2023-06-01T03:58:47;12.40;58.30
9215;DHT22;4642;51.364;6.788;2023-06-01T04:01:13;12.30;72.50
9215;DHT22;4642;51.364;6.788;2023-06-01T04:03:43;12.30;83.50
9215;DHT22;4642;51.364;6.788;2023-06-01T04:06:09;12.30;39.20
9215;DHT22;4642;51.364;6.788;2023-06-01T04:08:39;12.30;99.90
9215;DHT22;4642;51.364;6.788;2023-06-01T04:11:14;12.30;99.90
9215;DHT22;4642;51.364;6.788;2023-06-01T04:13:39;12.30;66.60
9215;DHT22;4642;51.364;6.788;2023-06-01T04:16:05;12.30;70.30
9215;DHT22;4642;51.364;6.788;2023-06-01T04:18:31;12.30;44.00
9215;DHT22;4642;51.364;6.788;2023-06-01T04:20:56;12.30;32.70
9215;DHT22;4642;51.364;6.788;2023-06-01T04:23:22;12.40;63.40
9215;DHT22;4642;51.364;6.788;2023-06-01T04:25:48;12.40;35.30
9215;DHT22;4642;51.364;6.788;2023-06-01T04:28:16;12.40;24.70
9215;DHT22;4642;51.364;6.788;2023-06-01T04:30:42;12.40;1.00
9215;DHT22;4642;51.364;6.788;2023-06-01T04:33:13;12.30;1.00
9215;DHT22;4642;51.364;6.788;2023-06-01T04:35:39;12.30;1.00
9215;DHT22;4642;51.364;6.788;2023-06-01T04:38:04;12.30;1.00
9215;DHT22;4642;51.364;6.788;2023-06-01T04:40:30;12.30;1.00
9215;DHT22;4642;51.364;6.788;2023-06-01T04:42:56;12.30;1.00
9215;DHT22;4642;51.364;6.788;2023-06-01T04:45:23;12.40;1.00
9215;DHT22;4642;51.364;6.788;2023-06-01T04:47:48;12.40;1.00
9215;DHT22;4642;51.364;6.788;2023-06-01T04:50:15;12.50;1.00
9215;DHT22;4642;51.364;6.788;2023-06-01T04:52:42;12.50;1.00
9215;DHT22;4642;51.364;6.788;2023-06-01T04:55:09;12.40;1.00
9215;DHT22;4642;51.364;6.788;2023-06-01T04:57:36;12.40;1.00
9215;DHT22;4642;51.364;6.788;2023-06-01T05:00:03;12.40;99.90
9215;DHT22;4642;51.364;6.788;2023-06-01T05:02:42;12.40;99.90
9215;DHT22;4642;51.364;6.788;2023-06-01T05:05:12;12.40;1.00
9215;DHT22;4642;51.364;6.788;2023-06-01T05:07:38;12.50;99.90
9215;DHT22;4642;51.364;6.788;2023-06-01T05:10:09;12.50;99.90
9215;DHT22;4642;51.364;6.788;2023-06-01T05:12:36;12.50;99.90
9215;DHT22;4642;51.364;6.788;2023-06-01T05:15:03;12.60;59.90
9215;DHT22;4642;51.364;6.788;2023-06-01T05:17:28;12.40;1.00
9215;DHT22;4642;51.364;6.788;2023-06-01T05:19:54;12.40;9.40
9215;DHT22;4642;51.364;6.788;2023-06-01T05:22:19;12.30;1.00
9215;DHT22;4642;51.364;6.788;2023-06-01T05:24:45;12.20;1.00
9215;DHT22;4642;51.364;6.788;2023-06-01T05:27:10;12.40;1.00
9215;DHT22;4642;51.364;6.788;2023-06-01T05:29:36;12.50;1.00
9215;DHT22;4642;51.364;6.788;2023-06-01T05:32:02;12.50;1.00
9215;DHT22;4642;51.364;6.788;2023-06-01T05:34:27;12.60;1.00
9215;DHT22;4642;51.364;6.788;2023-06-01T05:36:53;12.60;99.90
9215;DHT22;4642;51.364;6.788;2023-06-01T05:39:18;12.60;99.90
9215;DHT22;4642;51.364;6.788;2023-06-01T05:41:44;12.60;99.90
9215;DHT22;4642;51.364;6.788;2023-06-01T05:44:09;12.60;1.00
9215;DHT22;4642;51.364;6.788;2023-06-01T05:46:35;12.60;99.90
9215;DHT22;4642;51.364;6.788;2023-06-01T05:49:00;12.60;1.00
9215;DHT22;4642;51.364;6.788;2023-06-01T05:51:26;12.70;1.00
9215;DHT22;4642;51.364;6.788;2023-06-01T05:53:51;12.70;1.00
9215;DHT22;4642;51.364;6.788;2023-06-01T05:56:17;12.70;99.90
9215;DHT22;4642;51.364;6.788;2023-06-01T05:58:43;12.70;99.90
9215;DHT22;4642;51.364;6.788;2023-06-01T06:01:09;12.70;1.00
9215;DHT22;4642;51.364;6.788;2023-06-01T06:03:35;12.80;1.00
9215;DHT22;4642;51.364;6.788;2023-06-01T06:06:01;12.80;99.90
9215;DHT22;4642;51.364;6.788;2023-06-01T06:08:27;12.80;1.00
9215;DHT22;4642;51.364;6.788;2023-06-01T06:10:53;12.90;99.90
9215;DHT22;4642;51.364;6.788;2023-06-01T06:13:18;12.90;99.90
9215;DHT22;4642;51.364;6.788;2023-06-01T06:15:44;12.90;99.90
9215;DHT22;4642;51.364;6.788;2023-06-01T06:18:10;12.90;1.00
9215;DHT22;4642;51.364;6.788;2023-06-01T06:20:35;12.90;99.90
9215;DHT22;4642;51.364;6.788;2023-06-01T06:23:01;12.90;1.00
9215;DHT22;4642;51.364;6.788;2023-06-01T06:25:26;12.90;1.00
9215;DHT22;4642;51.364;6.788;2023-06-01T06:27:52;12.90;1.00
9215;DHT22;4642;51.364;6.788;2023-06-01T06:30:17;12.90;99.90
9215;DHT22;4642;51.364;6.788;2023-06-01T06:32:43;13.00;99.90
9215;DHT22;4642;51.364;6.788;2023-06-01T06:35:09;12.90;99.90
9215;DHT22;4642;51.364;6.788;2023-06-01T06:37:41;13.00;75.30
9215;DHT22;4642;51.364;6.788;2023-06-01T06:40:08;13.00;99.90
9215;DHT22;4642;51.364;6.788;2023-06-01T06:42:33;13.00;1.00
9215;DHT22;4642;51.364;6.788;2023-06-01T06:44:59;13.10;25.00
9215;DHT22;4642;51.364;6.788;2023-06-01T06:47:24;13.20;1.00
9215;DHT22;4642;51.364;6.788;2023-06-01T06:49:51;13.20;99.90
9215;DHT22;4642;51.364;6.788;2023-06-01T06:52:16;13.30;1.00
9215;DHT22;4642;51.364;6.788;2023-06-01T06:54:43;13.20;1.00
9215;DHT22;4642;51.364;6.788;2023-06-01T06:57:09;13.20;99.90
9215;DHT22;4642;51.364;6.788;2023-06-01T06:59:35;13.20;1.00
9215;DHT22;4642;51.364;6.788;2023-06-01T07:02:01;13.20;1.00
9215;DHT22;4642;51.364;6.788;2023-06-01T07:04:28;13.20;1.00
9215;DHT22;4642;51.364;6.788;2023-06-01T07:06:54;13.20;1.00
9215;DHT22;4642;51.364;6.788;2023-06-01T07:09:20;13.10;99.90
9215;DHT22;4642;51.364;6.788;2023-06-01T07:11:46;13.10;99.90
9215;DHT22;4642;51.364;6.788;2023-06-01T07:14:13;13.10;1.00
9215;DHT22;4642;51.364;6.788;2023-06-01T07:16:39;13.10;1.00
9215;DHT22;4642;51.364;6.788;2023-06-01T07:19:04;13.10;91.20
9215;DHT22;4642;51.364;6.788;2023-06-01T07:21:30;13.10;1.00
9215;DHT22;4642;51.364;6.788;2023-06-01T07:23:56;13.10;1.00
9215;DHT22;4642;51.364;6.788;2023-06-01T07:26:21;13.20;1.00
9215;DHT22;4642;51.364;6.788;2023-06-01T07:28:50;13.30;1.00
9215;DHT22;4642;51.364;6.788;2023-06-01T07:31:18;13.20;1.00
9215;DHT22;4642;51.364;6.788;2023-06-01T07:33:44;13.30;1.00
9215;DHT22;4642;51.364;6.788;2023-06-01T07:36:10;13.30;99.90
9215;DHT22;4642;51.364;6.788;2023-06-01T07:38:35;13.40;68.40
9215;DHT22;4642;51.364;6.788;2023-06-01T07:41:01;13.50;1.00
9215;DHT22;4642;51.364;6.788;2023-06-01T07:43:27;13.40;99.90
9215;DHT22;4642;51.364;6.788;2023-06-01T07:45:53;13.50;1.00
9215;DHT22;4642;51.364;6.788;2023-06-01T07:48:18;13.60;1.00
9215;DHT22;4642;51.364;6.788;2023-06-01T07:50:44;13.60;1.00
9215;DHT22;4642;51.364;6.788;2023-06-01T07:53:09;13.70;42.40
9215;DHT22;4642;51.364;6.788;2023-06-01T07:55:35;13.80;90.70
9215;DHT22;4642;51.364;6.788;2023-06-01T07:58:01;13.90;1.00
9215;DHT22;4642;51.364;6.788;2023-06-01T08:00:27;14.00;1.00
9215;DHT22;4642;51.364;6.788;2023-06-01T08:02:52;14.00;1.00
9215;DHT22;4642;51.364;6.788;2023-06-01T08:05:18;14.10;1.00
9215;DHT22;4642;51.364;6.788;2023-06-01T08:07:44;14.10;1.00
9215;DHT22;4642;51.364;6.788;2023-06-01T08:10:12;14.20;1.00
9215;DHT22;4642;51.364;6.788;2023-06-01T08:12:39;14.20;1.00
9215;DHT22;4642;51.364;6.788;2023-06-01T08:15:04;14.20;99.90
9215;DHT22;4642;51.364;6.788;2023-06-01T08:17:31;14.40;1.00
9215;DHT22;4642;51.364;6.788;2023-06-01T08:19:56;14.40;1.00
9215;DHT22;4642;51.364;6.788;2023-06-01T08:22:23;14.40;99.90
9215;DHT22;4642;51.364;6.788;2023-06-01T08:24:49;14.50;99.90
9215;DHT22;4642;51.364;6.788;2023-06-01T08:27:21;14.60;99.90
9215;DHT22;4642;51.364;6.788;2023-06-01T08:29:49;14.60;1.00
9215;DHT22;4642;51.364;6.788;2023-06-01T08:32:15;14.60;1.00
9215;DHT22;4642;51.364;6.788;2023-06-01T08:34:43;14.60;1.00
9215;DHT22;4642;51.364;6.788;2023-06-01T08:37:09;14.60;99.90
9215;DHT22;4642;51.364;6.788;2023-06-01T08:39:34;14.60;1.00
9215;DHT22;4642;51.364;6.788;2023-06-01T08:44:40;14.70;99.90
9215;DHT22;4642;51.364;6.788;2023-06-01T08:47:06;14.70;99.90
9215;DHT22;4642;51.364;6.788;2023-06-01T08:49:32;14.80;99.90
9215;DHT22;4642;51.364;6.788;2023-06-01T08:52:07;14.90;1.00
9215;DHT22;4642;51.364;6.788;2023-06-01T08:54:33;15.00;99.90
9215;DHT22;4642;51.364;6.788;2023-06-01T08:56:59;15.00;99.90
9215;DHT22;4642;51.364;6.788;2023-06-01T08:59:25;15.10;99.90
9215;DHT22;4642;51.364;6.788;2023-06-01T09:01:53;15.10;99.90
9215;DHT22;4642;51.364;6.788;2023-06-01T09:04:18;15.30;99.90
9215;DHT22;4642;51.364;6.788;2023-06-01T09:06:44;15.30;1.00
9215;DHT22;4642;51.364;6.788;2023-06-01T09:09:11;15.40;97.80
9215;DHT22;4642;51.364;6.788;2023-06-01T09:11:38;15.50;1.00
9215;DHT22;4642;51.364;6.788;2023-06-01T09:14:24;15.60;1.00
9215;DHT22;4642;51.364;6.788;2023-06-01T09:16:51;15.70;8.60
9215;DHT22;4642;51.364;6.788;2023-06-01T09:19:17;15.70;99.90
9215;DHT22;4642;51.364;6.788;2023-06-01T09:21:56;15.60;99.90
9215;DHT22;4642;51.364;6.788;2023-06-01T09:24:22;15.60;99.90
9215;DHT22;4642;51.364;6.788;2023-06-01T09:26:49;15.60;99.90
9215;DHT22;4642;51.364;6.788;2023-06-01T09:29:15;15.80;1.00
9215;DHT22;4642;51.364;6.788;2023-06-01T09:31:43;16.00;1.00
9215;DHT22;4642;51.364;6.788;2023-06-01T09:34:14;16.20;1.00
9215;DHT22;4642;51.364;6.788;2023-06-01T09:36:51;16.20;1.00
9215;DHT22;4642;51.364;6.788;2023-06-01T09:39:20;16.30;99.90
9215;DHT22;4642;51.364;6.788;2023-06-01T09:44:23;16.40;99.90
9215;DHT22;4642;51.364;6.788;2023-06-01T09:46:50;16.40;1.00
9215;DHT22;4642;51.364;6.788;2023-06-01T09:49:20;16.40;99.90
9215;DHT22;4642;51.364;6.788;2023-06-01T09:51:46;16.50;99.90
9215;DHT22;4642;51.364;6.788;2023-06-01T09:54:22;16.60;1.00
9215;DHT22;4642;51.364;6.788;2023-06-01T09:56:48;16.70;93.00
9215;DHT22;4642;51.364;6.788;2023-06-01T09:59:14;16.80;61.60
9215;DHT22;4642;51.364;6.788;2023-06-01T10:01:40;16.90;40.50
9215;DHT22;4642;51.364;6.788;2023-06-01T10:04:08;17.00;15.40
9215;DHT22;4642;51.364;6.788;2023-06-01T10:06:39;17.00;1.00
9215;DHT22;4642;51.364;6.788;2023-06-01T10:09:10;17.00;1.00
9215;DHT22;4642;51.364;6.788;2023-06-01T10:11:41;17.00;9.40
9215;DHT22;4642;51.364;6.788;2023-06-01T10:14:07;17.10;1.00
9215;DHT22;4642;51.364;6.788;2023-06-01T10:16:35;17.30;46.40
9215;DHT22;4642;51.364;6.788;2023-06-01T10:19:01;17.40;96.30
9215;DHT22;4642;51.364;6.788;2023-06-01T10:21:28;17.40;1.00
9215;DHT22;4642;51.364;6.788;2023-06-01T10:23:55;17.50;1.00
9215;DHT22;4642;51.364;6.788;2023-06-01T10:26:21;17.60;1.00
9215;DHT22;4642;51.364;6.788;2023-06-01T10:28:48;17.70;1.00
9215;DHT22;4642;51.364;6.788;2023-06-01T10:31:40;17.70;1.00
9215;DHT22;4642;51.364;6.788;2023-06-01T10:34:11;17.80;1.00
9215;DHT22;4642;51.364;6.788;2023-06-01T10:39:32;17.90;99.90
9215;DHT22;4642;51.364;6.788;2023-06-01T10:42:34;18.00;99.90
9215;DHT22;4642;51.364;6.788;2023-06-01T10:44:45;18.00;1.00
9215;DHT22;4642;51.364;6.788;2023-06-01T10:52:31;18.40;1.00
9215;DHT22;4642;51.364;6.788;2023-06-01T10:57:37;18.50;99.90
9215;DHT22;4642;51.364;6.788;2023-06-01T11:00:25;18.50;99.90
9215;DHT22;4642;51.364;6.788;2023-06-01T11:02:56;18.50;99.90
9215;DHT22;4642;51.364;6.788;2023-06-01T11:05:47;18.50;99.90
9215;DHT22;4642;51.364;6.788;2023-06-01T11:13:30;18.80;99.90
9215;DHT22;4642;51.364;6.788;2023-06-01T11:18:57;19.00;1.00
9215;DHT22;4642;51.364;6.788;2023-06-01T11:23:59;19.10;99.90
9215;DHT22;4642;51.364;6.788;2023-06-01T11:26:31;19.10;99.90
9215;DHT22;4642;51.364;6.788;2023-06-01T11:31:41;19.30;99.90
9215;DHT22;4642;51.364;6.788;2023-06-01T11:34:09;19.40;99.90
9215;DHT22;4642;51.364;6.788;2023-06-01T11:36:40;19.50;99.90
9215;DHT22;4642;51.364;6.788;2023-06-01T11:39:16;19.50;99.90
9215;DHT22;4642;51.364;6.788;2023-06-01T11:41:42;19.60;99.90
9215;DHT22;4642;51.364;6.788;2023-06-01T11:44:09;19.60;99.90
9215;DHT22;4642;51.364;6.788;2023-06-01T11:46:35;19.70;99.90
9215;DHT22;4642;51.364;6.788;2023-06-01T11:49:03;19.70;31.90
9215;DHT22;4642;51.364;6.788;2023-06-01T11:51:37;19.70;90.70
9215;DHT22;4642;51.364;6.788;2023-06-01T11:54:03;19.70;1.00
9215;DHT22;4642;51.364;6.788;2023-06-01T11:56:31;19.80;1.00
9215;DHT22;4642;51.364;6.788;2023-06-01T11:59:01;19.70;1.00
9215;DHT22;4642;51.364;6.788;2023-06-01T12:01:28;19.70;1.00
9215;DHT22;4642;51.364;6.788;2023-06-01T12:03:54;19.80;54.70
9215;DHT22;4642;51.364;6.788;2023-06-01T12:06:23;20.00;1.00
9215;DHT22;4642;51.364;6.788;2023-06-01T12:08:51;20.00;1.00
9215;DHT22;4642;51.364;6.788;2023-06-01T12:11:23;20.00;1.00
9215;DHT22;4642;51.364;6.788;2023-06-01T12:13:52;19.90;1.00
9215;DHT22;4642;51.364;6.788;2023-06-01T12:16:18;20.00;28.90
9215;DHT22;4642;51.364;6.788;2023-06-01T12:18:44;19.80;1.00
9215;DHT22;4642;51.364;6.788;2023-06-01T12:21:11;20.00;92.70
9215;DHT22;4642;51.364;6.788;2023-06-01T12:23:37;20.10;99.90
9215;DHT22;4642;51.364;6.788;2023-06-01T12:26:03;20.10;44.70
9215;DHT22;4642;51.364;6.788;2023-06-01T12:28:29;20.20;51.10
9215;DHT22;4642;51.364;6.788;2023-06-01T12:31:12;20.10;47.20
9215;DHT22;4642;51.364;6.788;2023-06-01T12:33:39;20.20;43.60
9215;DHT22;4642;51.364;6.788;2023-06-01T12:36:06;20.30;99.90
9215;DHT22;4642;51.364;6.788;2023-06-01T12:38:36;20.40;99.90
9215;DHT22;4642;51.364;6.788;2023-06-01T12:43:37;20.60;53.70
9215;DHT22;4642;51.364;6.788;2023-06-01T12:46:03;20.70;79.30
9215;DHT22;4642;51.364;6.788;2023-06-01T12:48:33;20.70;61.10
9215;DHT22;4642;51.364;6.788;2023-06-01T12:50:59;20.80;99.90
9215;DHT22;4642;51.364;6.788;2023-06-01T12:53:26;20.80;72.50
9215;DHT22;4642;51.364;6.788;2023-06-01T12:55:51;20.80;99.90
9215;DHT22;4642;51.364;6.788;2023-06-01T12:58:17;20.90;99.90
9215;DHT22;4642;51.364;6.788;2023-06-01T13:00:42;21.00;40.10
9215;DHT22;4642;51.364;6.788;2023-06-01T13:03:08;20.90;1.00
9215;DHT22;4642;51.364;6.788;2023-06-01T13:05:33;21.00;31.40
9215;DHT22;4642;51.364;6.788;2023-06-01T13:07:59;21.10;99.90
9215;DHT22;4642;51.364;6.788;2023-06-01T13:10:28;21.10;1.00
9215;DHT22;4642;51.364;6.788;2023-06-01T13:12:54;21.10;1.00
9215;DHT22;4642;51.364;6.788;2023-06-01T13:15:21;21.00;1.00
9215;DHT22;4642;51.364;6.788;2023-06-01T13:17:46;21.00;1.00
9215;DHT22;4642;51.364;6.788;2023-06-01T13:20:12;21.10;1.00
9215;DHT22;4642;51.364;6.788;2023-06-01T13:22:41;21.00;1.00
9215;DHT22;4642;51.364;6.788;2023-06-01T13:25:08;21.00;1.00
9215;DHT22;4642;51.364;6.788;2023-06-01T13:27:34;21.20;1.00
9215;DHT22;4642;51.364;6.788;2023-06-01T13:29:59;21.20;1.00
9215;DHT22;4642;51.364;6.788;2023-06-01T13:32:26;21.40;1.00
9215;DHT22;4642;51.364;6.788;2023-06-01T13:34:52;21.30;1.00
9215;DHT22;4642;51.364;6.788;2023-06-01T13:37:18;21.30;1.00
9215;DHT22;4642;51.364;6.788;2023-06-01T13:39:43;21.40;1.00
9215;DHT22;4642;51.364;6.788;2023-06-01T13:42:09;21.40;1.00
9215;DHT22;4642;51.364;6.788;2023-06-01T13:44:35;21.40;1.00
9215;DHT22;4642;51.364;6.788;2023-06-01T13:47:00;21.60;1.00
9215;DHT22;4642;51.364;6.788;2023-06-01T13:49:27;21.40;1.00
9215;DHT22;4642;51.364;6.788;2023-06-01T13:51:52;21.40;1.00
9215;DHT22;4642;51.364;6.788;2023-06-01T13:54:18;21.50;1.00
9215;DHT22;4642;51.364;6.788;2023-06-01T13:56:44;21.70;1.00
9215;DHT22;4642;51.364;6.788;2023-06-01T13:59:09;21.60;1.00
9215;DHT22;4642;51.364;6.788;2023-06-01T14:01:35;21.80;1.00
9215;DHT22;4642;51.364;6.788;2023-06-01T14:04:01;21.70;1.00
9215;DHT22;4642;51.364;6.788;2023-06-01T14:06:26;21.90;1.00
9215;DHT22;4642;51.364;6.788;2023-06-01T14:08:52;21.80;1.00
9215;DHT22;4642;51.364;6.788;2023-06-01T14:11:17;22.10;1.00
9215;DHT22;4642;51.364;6.788;2023-06-01T14:13:43;21.90;1.00
9215;DHT22;4642;51.364;6.788;2023-06-01T14:16:09;22.00;1.00
9215;DHT22;4642;51.364;6.788;2023-06-01T14:18:34;22.10;1.00
9215;DHT22;4642;51.364;6.788;2023-06-01T14:21:00;22.10;1.00
9215;DHT22;4642;51.364;6.788;2023-06-01T14:23:26;22.30;1.00
9215;DHT22;4642;51.364;6.788;2023-06-01T14:25:51;22.40;1.00
9215;DHT22;4642;51.364;6.788;2023-06-01T14:28:17;22.50;1.00
9215;DHT22;4642;51.364;6.788;2023-06-01T14:30:42;22.50;1.00
9215;DHT22;4642;51.364;6.788;2023-06-01T14:33:08;22.80;1.00
9215;DHT22;4642;51.364;6.788;2023-06-01T14:35:33;22.60;1.00
9215;DHT22;4642;51.364;6.788;2023-06-01T14:37:59;22.70;1.00
9215;DHT22;4642;51.364;6.788;2023-06-01T14:40:24;22.60;1.00
9215;DHT22;4642;51.364;6.788;2023-06-01T14:42:50;22.40;1.00
9215;DHT22;4642;51.364;6.788;2023-06-01T14:45:16;22.40;1.00
9215;DHT22;4642;51.364;6.788;2023-06-01T14:47:42;22.60;1.00
9215;DHT22;4642;51.364;6.788;2023-06-01T14:50:08;22.70;1.00
9215;DHT22;4642;51.364;6.788;2023-06-01T14:52:34;22.60;1.00
9215;DHT22;4642;51.364;6.788;2023-06-01T14:54:59;22.50;1.00
9215;DHT22;4642;51.364;6.788;2023-06-01T14:57:25;22.60;1.00
9215;DHT22;4642;51.364;6.788;2023-06-01T14:59:50;22.50;1.00
9215;DHT22;4642;51.364;6.788;2023-06-01T15:02:16;22.50;1.00
9215;DHT22;4642;51.364;6.788;2023-06-01T15:04:43;22.70;1.00
9215;DHT22;4642;51.364;6.788;2023-06-01T15:07:08;22.80;1.00
9215;DHT22;4642;51.364;6.788;2023-06-01T15:09:34;22.90;1.00
9215;DHT22;4642;51.364;6.788;2023-06-01T15:11:59;22.90;1.00
9215;DHT22;4642;51.364;6.788;2023-06-01T15:14:25;23.00;1.00
9215;DHT22;4642;51.364;6.788;2023-06-01T15:16:50;23.00;1.00
9215;DHT22;4642;51.364;6.788;2023-06-01T15:19:16;23.20;1.00
9215;DHT22;4642;51.364;6.788;2023-06-01T15:21:41;23.30;1.00
9215;DHT22;4642;51.364;6.788;2023-06-01T15:24:07;23.20;1.00
9215;DHT22;4642;51.364;6.788;2023-06-01T15:26:33;23.40;1.00
9215;DHT22;4642;51.364;6.788;2023-06-01T15:28:58;23.40;1.00
9215;DHT22;4642;51.364;6.788;2023-06-01T15:31:24;23.50;1.00
9215;DHT22;4642;51.364;6.788;2023-06-01T15:33:49;23.60;1.00
9215;DHT22;4642;51.364;6.788;2023-06-01T15:36:15;23.40;1.00
9215;DHT22;4642;51.364;6.788;2023-06-01T15:38:40;23.40;1.00
9215;DHT22;4642;51.364;6.788;2023-06-01T15:41:06;23.50;1.00
9215;DHT22;4642;51.364;6.788;2023-06-01T15:43:35;23.30;1.00
9215;DHT22;4642;51.364;6.788;2023-06-01T15:46:04;23.20;1.00
9215;DHT22;4642;51.364;6.788;2023-06-01T15:48:30;23.30;1.00
9215;DHT22;4642;51.364;6.788;2023-06-01T15:50:57;23.10;1.00
9215;DHT22;4642;51.364;6.788;2023-06-01T15:53:22;23.10;1.00
9215;DHT22;4642;51.364;6.788;2023-06-01T15:55:48;23.20;1.00
9215;DHT22;4642;51.364;6.788;2023-06-01T15:58:13;23.00;1.00
9215;DHT22;4642;51.364;6.788;2023-06-01T16:00:39;22.70;1.00
9215;DHT22;4642;51.364;6.788;2023-06-01T16:03:04;22.80;1.00
9215;DHT22;4642;51.364;6.788;2023-06-01T16:05:31;22.80;1.00
9215;DHT22;4642;51.364;6.788;2023-06-01T16:07:57;22.80;1.00
9215;DHT22;4642;51.364;6.788;2023-06-01T16:10:22;22.90;1.00
9215;DHT22;4642;51.364;6.788;2023-06-01T16:12:48;22.80;1.00
9215;DHT22;4642;51.364;6.788;2023-06-01T16:15:14;22.80;1.00
9215;DHT22;4642;51.364;6.788;2023-06-01T16:17:39;23.00;1.00
9215;DHT22;4642;51.364;6.788;2023-06-01T16:20:06;22.90;1.00
9215;DHT22;4642;51.364;6.788;2023-06-01T16:22:32;22.90;1.00
9215;DHT22;4642;51.364;6.788;2023-06-01T16:25:01;22.70;1.00
9215;DHT22;4642;51.364;6.788;2023-06-01T16:27:27;22.80;1.00
9215;DHT22;4642;51.364;6.788;2023-06-01T16:29:52;22.80;1.00
9215;DHT22;4642;51.364;6.788;2023-06-01T16:32:18;22.50;1.00
9215;DHT22;4642;51.364;6.788;2023-06-01T16:34:43;22.50;1.00
9215;DHT22;4642;51.364;6.788;2023-06-01T16:37:09;22.40;1.00
9215;DHT22;4642;51.364;6.788;2023-06-01T16:39:34;22.40;1.00
9215;DHT22;4642;51.364;6.788;2023-06-01T16:42:00;22.50;1.00
9215;DHT22;4642;51.364;6.788;2023-06-01T16:44:25;22.40;1.00
9215;DHT22;4642;51.364;6.788;2023-06-01T16:46:51;22.30;1.00
9215;DHT22;4642;51.364;6.788;2023-06-01T16:49:17;22.30;1.00
9215;DHT22;4642;51.364;6.788;2023-06-01T16:51:42;22.40;1.00
9215;DHT22;4642;51.364;6.788;2023-06-01T16:54:08;22.50;1.00